Weather at Limbang Heliport

Public forecast

Using degrees Celsius for public forecast. Weather courtesy of forecast.io.

Closest aviation weather report (METAR) to Limbang Heliport

Closest report is Brunei International Airport, 12.2 nm (22.6 km) NNW.

2024/02/24 01:30 (retrieved 1 hour ago)

WBSB 240130Z 13001KT 9999 SCT014 BKN140 28/28 Q1013 NOSIG

Closest aviation forecast (TAF) to Limbang Heliport

Forecast is more than 12 hours old.

Closest forecast is Car Nicobar Air Force Base, 1,348.1 nm (2,496.8 km) WNW.

2024/02/23 12:00 (retrieved 15 hours ago)

TAF VOCX 230930Z 2312/2400 07010KT 6000 SCT018 BKN200